sensor_id;sensor_type;location;lat;lon;timestamp;P1;durP1;ratioP1;P2;durP2;ratioP2
76727;SDS011;65652;53.132;18.026;2023-05-20T00:01:03;6.50;;;2.20;;
76727;SDS011;65652;53.132;18.026;2023-05-20T00:03:30;5.40;;;2.20;;
76727;SDS011;65652;53.132;18.026;2023-05-20T00:05:57;6.90;;;2.50;;
76727;SDS011;65652;53.132;18.026;2023-05-20T00:08:24;6.30;;;2.30;;
76727;SDS011;65652;53.132;18.026;2023-05-20T00:10:51;5.60;;;2.20;;
76727;SDS011;65652;53.132;18.026;2023-05-20T00:13:18;6.00;;;2.30;;
76727;SDS011;65652;53.132;18.026;2023-05-20T00:15:44;7.40;;;2.50;;
76727;SDS011;65652;53.132;18.026;2023-05-20T00:18:11;5.70;;;2.60;;
76727;SDS011;65652;53.132;18.026;2023-05-20T00:20:38;6.50;;;2.60;;
76727;SDS011;65652;53.132;18.026;2023-05-20T00:23:05;6.20;;;2.30;;
76727;SDS011;65652;53.132;18.026;2023-05-20T00:25:32;5.50;;;2.50;;
76727;SDS011;65652;53.132;18.026;2023-05-20T00:27:59;5.60;;;2.70;;
76727;SDS011;65652;53.132;18.026;2023-05-20T00:30:26;6.60;;;2.60;;
76727;SDS011;65652;53.132;18.026;2023-05-20T00:32:53;5.70;;;2.70;;
76727;SDS011;65652;53.132;18.026;2023-05-20T00:35:19;6.70;;;3.10;;
76727;SDS011;65652;53.132;18.026;2023-05-20T00:37:46;6.10;;;2.70;;
76727;SDS011;65652;53.132;18.026;2023-05-20T00:40:13;7.00;;;3.10;;
76727;SDS011;65652;53.132;18.026;2023-05-20T00:42:41;7.30;;;2.80;;
76727;SDS011;65652;53.132;18.026;2023-05-20T00:45:09;7.00;;;2.80;;
76727;SDS011;65652;53.132;18.026;2023-05-20T00:47:37;5.60;;;2.50;;
76727;SDS011;65652;53.132;18.026;2023-05-20T00:50:04;6.30;;;2.90;;
76727;SDS011;65652;53.132;18.026;2023-05-20T00:52:31;6.10;;;2.90;;
76727;SDS011;65652;53.132;18.026;2023-05-20T00:54:59;7.10;;;2.90;;
76727;SDS011;65652;53.132;18.026;2023-05-20T00:57:26;7.70;;;3.00;;
76727;SDS011;65652;53.132;18.026;2023-05-20T00:59:53;6.50;;;2.80;;
76727;SDS011;65652;53.132;18.026;2023-05-20T01:02:21;6.70;;;3.00;;
76727;SDS011;65652;53.132;18.026;2023-05-20T01:04:48;9.20;;;3.00;;
76727;SDS011;65652;53.132;18.026;2023-05-20T01:07:15;6.30;;;2.70;;
76727;SDS011;65652;53.132;18.026;2023-05-20T01:09:43;6.70;;;2.80;;
76727;SDS011;65652;53.132;18.026;2023-05-20T01:12:17;7.50;;;2.90;;
76727;SDS011;65652;53.132;18.026;2023-05-20T01:14:50;6.00;;;2.60;;
76727;SDS011;65652;53.132;18.026;2023-05-20T01:17:26;6.30;;;2.70;;
76727;SDS011;65652;53.132;18.026;2023-05-20T01:19:58;6.60;;;2.90;;
76727;SDS011;65652;53.132;18.026;2023-05-20T01:22:27;5.70;;;2.50;;
76727;SDS011;65652;53.132;18.026;2023-05-20T01:24:55;6.20;;;2.50;;
76727;SDS011;65652;53.132;18.026;2023-05-20T01:27:22;7.20;;;3.30;;
76727;SDS011;65652;53.132;18.026;2023-05-20T01:29:50;9.40;;;3.30;;
76727;SDS011;65652;53.132;18.026;2023-05-20T01:32:19;6.40;;;2.70;;
76727;SDS011;65652;53.132;18.026;2023-05-20T01:34:49;6.20;;;2.80;;
76727;SDS011;65652;53.132;18.026;2023-05-20T01:37:19;5.40;;;2.50;;
76727;SDS011;65652;53.132;18.026;2023-05-20T01:39:48;7.90;;;2.60;;
76727;SDS011;65652;53.132;18.026;2023-05-20T01:42:16;6.50;;;2.80;;
76727;SDS011;65652;53.132;18.026;2023-05-20T01:44:45;6.90;;;2.70;;
76727;SDS011;65652;53.132;18.026;2023-05-20T01:47:12;5.20;;;2.30;;
76727;SDS011;65652;53.132;18.026;2023-05-20T01:49:41;6.90;;;2.70;;
76727;SDS011;65652;53.132;18.026;2023-05-20T01:52:08;7.40;;;2.90;;
76727;SDS011;65652;53.132;18.026;2023-05-20T01:54:35;6.90;;;2.80;;
76727;SDS011;65652;53.132;18.026;2023-05-20T01:57:02;6.70;;;2.70;;
76727;SDS011;65652;53.132;18.026;2023-05-20T01:59:29;8.40;;;3.00;;
76727;SDS011;65652;53.132;18.026;2023-05-20T02:01:56;6.90;;;2.90;;
76727;SDS011;65652;53.132;18.026;2023-05-20T02:04:23;6.50;;;2.70;;
76727;SDS011;65652;53.132;18.026;2023-05-20T02:06:50;6.70;;;2.60;;
76727;SDS011;65652;53.132;18.026;2023-05-20T02:09:17;5.50;;;2.50;;
76727;SDS011;65652;53.132;18.026;2023-05-20T02:11:44;6.70;;;2.80;;
76727;SDS011;65652;53.132;18.026;2023-05-20T02:14:11;5.30;;;2.20;;
76727;SDS011;65652;53.132;18.026;2023-05-20T02:16:38;6.50;;;2.30;;
76727;SDS011;65652;53.132;18.026;2023-05-20T02:19:05;5.40;;;2.30;;
76727;SDS011;65652;53.132;18.026;2023-05-20T02:21:38;5.20;;;2.40;;
76727;SDS011;65652;53.132;18.026;2023-05-20T02:26:33;5.70;;;2.40;;
76727;SDS011;65652;53.132;18.026;2023-05-20T02:29:00;5.00;;;2.40;;
76727;SDS011;65652;53.132;18.026;2023-05-20T02:31:27;5.80;;;2.40;;
76727;SDS011;65652;53.132;18.026;2023-05-20T02:33:54;5.60;;;2.50;;
76727;SDS011;65652;53.132;18.026;2023-05-20T02:36:21;7.70;;;3.20;;
76727;SDS011;65652;53.132;18.026;2023-05-20T02:38:48;7.30;;;2.60;;
76727;SDS011;65652;53.132;18.026;2023-05-20T02:41:15;5.60;;;2.30;;
76727;SDS011;65652;53.132;18.026;2023-05-20T02:43:42;5.80;;;2.40;;
76727;SDS011;65652;53.132;18.026;2023-05-20T02:46:10;6.00;;;2.80;;
76727;SDS011;65652;53.132;18.026;2023-05-20T02:48:37;6.50;;;2.80;;
76727;SDS011;65652;53.132;18.026;2023-05-20T02:51:04;6.50;;;2.40;;
76727;SDS011;65652;53.132;18.026;2023-05-20T02:53:31;6.00;;;2.50;;
76727;SDS011;65652;53.132;18.026;2023-05-20T02:55:58;6.40;;;2.70;;
76727;SDS011;65652;53.132;18.026;2023-05-20T02:58:25;6.60;;;2.60;;
76727;SDS011;65652;53.132;18.026;2023-05-20T03:03:20;5.90;;;2.70;;
76727;SDS011;65652;53.132;18.026;2023-05-20T03:05:47;6.50;;;2.50;;
76727;SDS011;65652;53.132;18.026;2023-05-20T03:08:14;6.60;;;2.90;;
76727;SDS011;65652;53.132;18.026;2023-05-20T03:10:40;5.60;;;2.60;;
76727;SDS011;65652;53.132;18.026;2023-05-20T03:13:07;6.80;;;2.60;;
76727;SDS011;65652;53.132;18.026;2023-05-20T03:15:37;6.00;;;2.90;;
76727;SDS011;65652;53.132;18.026;2023-05-20T03:18:04;5.70;;;3.10;;
76727;SDS011;65652;53.132;18.026;2023-05-20T03:20:32;6.20;;;3.00;;
76727;SDS011;65652;53.132;18.026;2023-05-20T03:23:02;6.50;;;2.70;;
76727;SDS011;65652;53.132;18.026;2023-05-20T03:27:57;6.50;;;3.00;;
76727;SDS011;65652;53.132;18.026;2023-05-20T03:30:27;6.80;;;2.70;;
76727;SDS011;65652;53.132;18.026;2023-05-20T03:32:55;5.90;;;2.40;;
76727;SDS011;65652;53.132;18.026;2023-05-20T03:35:24;6.80;;;2.90;;
76727;SDS011;65652;53.132;18.026;2023-05-20T03:37:52;6.90;;;2.60;;
76727;SDS011;65652;53.132;18.026;2023-05-20T03:40:20;4.60;;;2.20;;
76727;SDS011;65652;53.132;18.026;2023-05-20T03:42:47;6.10;;;2.70;;
76727;SDS011;65652;53.132;18.026;2023-05-20T03:45:17;5.30;;;2.40;;
76727;SDS011;65652;53.132;18.026;2023-05-20T03:48:16;6.90;;;2.70;;
76727;SDS011;65652;53.132;18.026;2023-05-20T03:50:43;7.70;;;2.40;;
76727;SDS011;65652;53.132;18.026;2023-05-20T03:53:10;7.50;;;2.90;;
76727;SDS011;65652;53.132;18.026;2023-05-20T03:55:40;5.80;;;2.20;;
76727;SDS011;65652;53.132;18.026;2023-05-20T03:58:08;5.90;;;2.40;;
76727;SDS011;65652;53.132;18.026;2023-05-20T04:00:34;7.30;;;2.50;;
76727;SDS011;65652;53.132;18.026;2023-05-20T04:03:01;5.10;;;2.40;;
76727;SDS011;65652;53.132;18.026;2023-05-20T04:05:28;6.80;;;2.50;;
76727;SDS011;65652;53.132;18.026;2023-05-20T04:07:55;5.00;;;2.40;;
76727;SDS011;65652;53.132;18.026;2023-05-20T04:10:23;6.30;;;2.10;;
76727;SDS011;65652;53.132;18.026;2023-05-20T04:12:50;6.10;;;2.70;;
76727;SDS011;65652;53.132;18.026;2023-05-20T04:15:19;6.60;;;2.20;;
76727;SDS011;65652;53.132;18.026;2023-05-20T04:17:53;4.90;;;2.00;;
76727;SDS011;65652;53.132;18.026;2023-05-20T04:20:20;6.30;;;2.70;;
76727;SDS011;65652;53.132;18.026;2023-05-20T04:22:47;6.00;;;2.40;;
76727;SDS011;65652;53.132;18.026;2023-05-20T04:25:14;6.70;;;2.10;;
76727;SDS011;65652;53.132;18.026;2023-05-20T04:27:42;5.90;;;2.20;;
76727;SDS011;65652;53.132;18.026;2023-05-20T04:30:09;6.40;;;2.30;;
76727;SDS011;65652;53.132;18.026;2023-05-20T04:32:39;6.20;;;2.30;;
76727;SDS011;65652;53.132;18.026;2023-05-20T04:35:07;6.90;;;1.80;;
76727;SDS011;65652;53.132;18.026;2023-05-20T04:37:37;6.40;;;2.40;;
76727;SDS011;65652;53.132;18.026;2023-05-20T04:40:04;5.50;;;2.10;;
76727;SDS011;65652;53.132;18.026;2023-05-20T04:42:35;5.50;;;2.20;;
76727;SDS011;65652;53.132;18.026;2023-05-20T04:45:03;5.10;;;2.10;;
76727;SDS011;65652;53.132;18.026;2023-05-20T04:47:31;5.50;;;1.90;;
76727;SDS011;65652;53.132;18.026;2023-05-20T04:50:08;5.00;;;2.00;;
76727;SDS011;65652;53.132;18.026;2023-05-20T04:52:36;5.50;;;1.90;;
76727;SDS011;65652;53.132;18.026;2023-05-20T04:55:05;5.20;;;2.00;;
76727;SDS011;65652;53.132;18.026;2023-05-20T04:57:39;6.40;;;2.50;;
76727;SDS011;65652;53.132;18.026;2023-05-20T05:00:07;5.40;;;2.40;;
76727;SDS011;65652;53.132;18.026;2023-05-20T05:02:36;4.80;;;1.90;;
76727;SDS011;65652;53.132;18.026;2023-05-20T05:05:04;6.10;;;2.00;;
76727;SDS011;65652;53.132;18.026;2023-05-20T05:07:31;5.90;;;2.30;;
76727;SDS011;65652;53.132;18.026;2023-05-20T05:09:58;4.90;;;2.00;;
76727;SDS011;65652;53.132;18.026;2023-05-20T05:12:25;4.90;;;1.90;;
76727;SDS011;65652;53.132;18.026;2023-05-20T05:14:52;6.20;;;1.90;;
76727;SDS011;65652;53.132;18.026;2023-05-20T05:17:19;6.40;;;2.30;;
76727;SDS011;65652;53.132;18.026;2023-05-20T05:19:46;5.20;;;2.00;;
76727;SDS011;65652;53.132;18.026;2023-05-20T05:22:13;5.70;;;2.20;;
76727;SDS011;65652;53.132;18.026;2023-05-20T05:24:40;6.10;;;1.80;;
76727;SDS011;65652;53.132;18.026;2023-05-20T05:27:06;5.20;;;2.10;;
76727;SDS011;65652;53.132;18.026;2023-05-20T05:29:34;7.40;;;2.10;;
76727;SDS011;65652;53.132;18.026;2023-05-20T05:32:01;4.20;;;1.70;;
76727;SDS011;65652;53.132;18.026;2023-05-20T05:34:28;5.20;;;2.20;;
76727;SDS011;65652;53.132;18.026;2023-05-20T05:36:55;5.40;;;1.80;;
76727;SDS011;65652;53.132;18.026;2023-05-20T05:39:21;6.20;;;1.90;;
76727;SDS011;65652;53.132;18.026;2023-05-20T05:41:48;4.50;;;1.80;;
76727;SDS011;65652;53.132;18.026;2023-05-20T05:44:15;6.50;;;1.90;;
76727;SDS011;65652;53.132;18.026;2023-05-20T05:46:42;4.60;;;2.00;;
76727;SDS011;65652;53.132;18.026;2023-05-20T05:49:10;5.60;;;2.10;;
76727;SDS011;65652;53.132;18.026;2023-05-20T05:51:37;5.30;;;1.80;;
76727;SDS011;65652;53.132;18.026;2023-05-20T05:54:04;5.80;;;1.90;;
76727;SDS011;65652;53.132;18.026;2023-05-20T05:56:31;5.30;;;2.00;;
76727;SDS011;65652;53.132;18.026;2023-05-20T05:58:58;5.50;;;1.80;;
76727;SDS011;65652;53.132;18.026;2023-05-20T06:01:24;5.70;;;1.80;;
76727;SDS011;65652;53.132;18.026;2023-05-20T06:03:51;4.90;;;2.00;;
76727;SDS011;65652;53.132;18.026;2023-05-20T06:06:19;6.30;;;1.90;;
76727;SDS011;65652;53.132;18.026;2023-05-20T06:08:46;4.80;;;1.80;;
76727;SDS011;65652;53.132;18.026;2023-05-20T06:11:12;5.90;;;1.90;;
76727;SDS011;65652;53.132;18.026;2023-05-20T06:13:39;6.30;;;2.10;;
76727;SDS011;65652;53.132;18.026;2023-05-20T06:16:06;6.80;;;2.00;;
76727;SDS011;65652;53.132;18.026;2023-05-20T06:18:33;5.80;;;2.00;;
76727;SDS011;65652;53.132;18.026;2023-05-20T06:21:04;4.30;;;1.80;;
76727;SDS011;65652;53.132;18.026;2023-05-20T06:23:31;7.30;;;1.80;;
76727;SDS011;65652;53.132;18.026;2023-05-20T06:26:01;5.90;;;2.10;;
76727;SDS011;65652;53.132;18.026;2023-05-20T06:28:29;5.80;;;2.20;;
76727;SDS011;65652;53.132;18.026;2023-05-20T06:30:56;7.40;;;2.30;;
76727;SDS011;65652;53.132;18.026;2023-05-20T06:33:25;5.20;;;1.90;;
76727;SDS011;65652;53.132;18.026;2023-05-20T06:35:54;5.40;;;2.20;;
76727;SDS011;65652;53.132;18.026;2023-05-20T06:38:22;5.20;;;1.90;;
76727;SDS011;65652;53.132;18.026;2023-05-20T06:40:50;5.70;;;1.90;;
76727;SDS011;65652;53.132;18.026;2023-05-20T06:43:17;4.80;;;1.90;;
76727;SDS011;65652;53.132;18.026;2023-05-20T06:46:04;5.50;;;1.90;;
76727;SDS011;65652;53.132;18.026;2023-05-20T06:48:53;7.00;;;1.80;;
76727;SDS011;65652;53.132;18.026;2023-05-20T06:51:21;7.10;;;1.70;;
76727;SDS011;65652;53.132;18.026;2023-05-20T06:53:49;7.50;;;2.50;;
76727;SDS011;65652;53.132;18.026;2023-05-20T06:56:16;6.20;;;2.10;;
76727;SDS011;65652;53.132;18.026;2023-05-20T06:58:43;6.40;;;2.10;;
76727;SDS011;65652;53.132;18.026;2023-05-20T07:01:10;5.70;;;1.90;;
76727;SDS011;65652;53.132;18.026;2023-05-20T07:03:38;5.70;;;2.00;;
76727;SDS011;65652;53.132;18.026;2023-05-20T07:06:05;5.60;;;1.90;;
76727;SDS011;65652;53.132;18.026;2023-05-20T07:08:31;5.20;;;1.90;;
76727;SDS011;65652;53.132;18.026;2023-05-20T07:10:59;6.10;;;2.00;;
76727;SDS011;65652;53.132;18.026;2023-05-20T07:13:26;6.00;;;1.90;;
76727;SDS011;65652;53.132;18.026;2023-05-20T07:15:53;7.00;;;2.20;;
76727;SDS011;65652;53.132;18.026;2023-05-20T07:18:19;6.00;;;2.10;;
76727;SDS011;65652;53.132;18.026;2023-05-20T07:20:51;5.10;;;1.90;;
76727;SDS011;65652;53.132;18.026;2023-05-20T07:23:33;6.40;;;1.90;;
76727;SDS011;65652;53.132;18.026;2023-05-20T07:26:00;4.70;;;2.20;;
76727;SDS011;65652;53.132;18.026;2023-05-20T07:28:27;6.50;;;2.20;;
76727;SDS011;65652;53.132;18.026;2023-05-20T07:30:54;6.70;;;1.90;;
76727;SDS011;65652;53.132;18.026;2023-05-20T07:33:26;6.20;;;2.30;;
76727;SDS011;65652;53.132;18.026;2023-05-20T07:35:53;4.50;;;1.90;;
76727;SDS011;65652;53.132;18.026;2023-05-20T07:38:21;6.00;;;2.30;;
76727;SDS011;65652;53.132;18.026;2023-05-20T07:40:54;9.10;;;2.70;;
76727;SDS011;65652;53.132;18.026;2023-05-20T07:43:21;6.50;;;2.40;;
76727;SDS011;65652;53.132;18.026;2023-05-20T07:45:48;5.90;;;2.20;;
76727;SDS011;65652;53.132;18.026;2023-05-20T07:48:15;5.40;;;1.80;;
76727;SDS011;65652;53.132;18.026;2023-05-20T07:50:42;4.70;;;1.90;;
76727;SDS011;65652;53.132;18.026;2023-05-20T07:53:10;5.50;;;1.90;;
76727;SDS011;65652;53.132;18.026;2023-05-20T07:58:05;9.80;;;3.30;;
76727;SDS011;65652;53.132;18.026;2023-05-20T08:00:34;6.30;;;2.10;;
76727;SDS011;65652;53.132;18.026;2023-05-20T08:03:02;5.50;;;2.20;;
76727;SDS011;65652;53.132;18.026;2023-05-20T08:05:36;6.20;;;2.20;;
76727;SDS011;65652;53.132;18.026;2023-05-20T08:08:05;6.50;;;2.10;;
76727;SDS011;65652;53.132;18.026;2023-05-20T08:10:41;6.50;;;2.10;;
76727;SDS011;65652;53.132;18.026;2023-05-20T08:13:08;8.00;;;2.20;;
76727;SDS011;65652;53.132;18.026;2023-05-20T08:15:35;5.90;;;2.10;;
76727;SDS011;65652;53.132;18.026;2023-05-20T08:18:02;7.90;;;2.40;;
76727;SDS011;65652;53.132;18.026;2023-05-20T08:20:29;6.40;;;2.00;;
76727;SDS011;65652;53.132;18.026;2023-05-20T08:22:57;6.30;;;2.00;;
76727;SDS011;65652;53.132;18.026;2023-05-20T08:25:23;6.10;;;2.60;;
76727;SDS011;65652;53.132;18.026;2023-05-20T08:27:51;5.80;;;2.30;;
76727;SDS011;65652;53.132;18.026;2023-05-20T08:30:18;8.60;;;2.40;;
76727;SDS011;65652;53.132;18.026;2023-05-20T08:32:46;5.80;;;2.20;;
76727;SDS011;65652;53.132;18.026;2023-05-20T08:37:42;4.90;;;2.30;;
76727;SDS011;65652;53.132;18.026;2023-05-20T08:40:09;6.50;;;2.40;;
76727;SDS011;65652;53.132;18.026;2023-05-20T08:42:39;6.10;;;2.30;;
76727;SDS011;65652;53.132;18.026;2023-05-20T08:45:09;6.90;;;2.60;;
76727;SDS011;65652;53.132;18.026;2023-05-20T08:47:38;5.50;;;2.00;;
76727;SDS011;65652;53.132;18.026;2023-05-20T08:50:09;7.30;;;2.00;;
76727;SDS011;65652;53.132;18.026;2023-05-20T08:52:40;5.70;;;2.60;;
76727;SDS011;65652;53.132;18.026;2023-05-20T08:55:12;5.30;;;2.60;;
76727;SDS011;65652;53.132;18.026;2023-05-20T08:57:41;6.90;;;2.30;;
76727;SDS011;65652;53.132;18.026;2023-05-20T09:00:12;7.10;;;2.30;;
76727;SDS011;65652;53.132;18.026;2023-05-20T09:02:45;6.80;;;2.70;;
76727;SDS011;65652;53.132;18.026;2023-05-20T09:05:12;5.30;;;2.30;;
76727;SDS011;65652;53.132;18.026;2023-05-20T09:07:40;6.60;;;3.30;;
76727;SDS011;65652;53.132;18.026;2023-05-20T09:10:08;9.40;;;2.40;;
76727;SDS011;65652;53.132;18.026;2023-05-20T09:15:04;5.60;;;2.30;;
76727;SDS011;65652;53.132;18.026;2023-05-20T09:17:34;5.60;;;2.40;;
76727;SDS011;65652;53.132;18.026;2023-05-20T09:20:06;5.60;;;2.60;;
76727;SDS011;65652;53.132;18.026;2023-05-20T09:22:34;7.60;;;3.00;;
76727;SDS011;65652;53.132;18.026;2023-05-20T09:25:01;6.00;;;2.60;;
76727;SDS011;65652;53.132;18.026;2023-05-20T09:27:28;7.60;;;2.90;;
76727;SDS011;65652;53.132;18.026;2023-05-20T09:29:55;6.70;;;2.80;;
76727;SDS011;65652;53.132;18.026;2023-05-20T09:32:22;6.00;;;2.60;;
76727;SDS011;65652;53.132;18.026;2023-05-20T09:34:53;6.50;;;2.70;;
76727;SDS011;65652;53.132;18.026;2023-05-20T09:37:20;6.00;;;2.90;;
76727;SDS011;65652;53.132;18.026;2023-05-20T09:39:54;6.10;;;2.30;;
76727;SDS011;65652;53.132;18.026;2023-05-20T09:42:37;5.20;;;2.40;;
76727;SDS011;65652;53.132;18.026;2023-05-20T09:45:07;6.00;;;2.60;;
76727;SDS011;65652;53.132;18.026;2023-05-20T09:47:37;5.40;;;2.80;;
76727;SDS011;65652;53.132;18.026;2023-05-20T09:50:08;8.30;;;2.20;;
76727;SDS011;65652;53.132;18.026;2023-05-20T09:55:07;6.50;;;3.10;;
76727;SDS011;65652;53.132;18.026;2023-05-20T09:57:36;7.10;;;2.60;;
76727;SDS011;65652;53.132;18.026;2023-05-20T10:00:04;6.70;;;3.00;;
76727;SDS011;65652;53.132;18.026;2023-05-20T10:02:48;7.20;;;2.60;;
76727;SDS011;65652;53.132;18.026;2023-05-20T10:05:17;5.50;;;2.90;;
76727;SDS011;65652;53.132;18.026;2023-05-20T10:10:49;5.10;;;2.60;;
76727;SDS011;65652;53.132;18.026;2023-05-20T10:16:25;7.00;;;2.80;;
76727;SDS011;65652;53.132;18.026;2023-05-20T10:21:33;5.60;;;2.50;;
76727;SDS011;65652;53.132;18.026;2023-05-20T10:24:07;6.00;;;2.90;;
76727;SDS011;65652;53.132;18.026;2023-05-20T10:26:39;8.10;;;2.80;;
76727;SDS011;65652;53.132;18.026;2023-05-20T10:29:17;6.70;;;2.70;;
76727;SDS011;65652;53.132;18.026;2023-05-20T10:31:44;7.50;;;3.00;;
76727;SDS011;65652;53.132;18.026;2023-05-20T10:34:15;6.30;;;2.60;;
76727;SDS011;65652;53.132;18.026;2023-05-20T10:36:44;5.80;;;3.30;;
76727;SDS011;65652;53.132;18.026;2023-05-20T10:39:14;5.70;;;2.80;;
76727;SDS011;65652;53.132;18.026;2023-05-20T10:41:42;5.60;;;3.40;;
76727;SDS011;65652;53.132;18.026;2023-05-20T10:44:09;6.20;;;2.90;;
76727;SDS011;65652;53.132;18.026;2023-05-20T10:46:36;6.30;;;2.90;;
76727;SDS011;65652;53.132;18.026;2023-05-20T10:49:05;6.90;;;3.40;;
76727;SDS011;65652;53.132;18.026;2023-05-20T10:51:44;5.80;;;2.60;;
76727;SDS011;65652;53.132;18.026;2023-05-20T10:54:12;7.00;;;2.90;;
76727;SDS011;65652;53.132;18.026;2023-05-20T10:56:49;7.40;;;3.20;;
76727;SDS011;65652;53.132;18.026;2023-05-20T10:59:18;5.70;;;3.00;;
76727;SDS011;65652;53.132;18.026;2023-05-20T11:01:47;6.10;;;3.10;;
76727;SDS011;65652;53.132;18.026;2023-05-20T11:04:14;6.90;;;3.20;;
76727;SDS011;65652;53.132;18.026;2023-05-20T11:06:51;6.20;;;3.20;;
76727;SDS011;65652;53.132;18.026;2023-05-20T11:09:19;5.00;;;2.70;;
76727;SDS011;65652;53.132;18.026;2023-05-20T11:11:46;7.20;;;3.10;;
76727;SDS011;65652;53.132;18.026;2023-05-20T12:20:12;7.30;;;4.00;;
76727;SDS011;65652;53.132;18.026;2023-05-20T12:22:41;7.00;;;4.10;;
76727;SDS011;65652;53.132;18.026;2023-05-20T12:25:10;7.30;;;4.20;;
76727;SDS011;65652;53.132;18.026;2023-05-20T12:27:38;8.00;;;4.20;;
76727;SDS011;65652;53.132;18.026;2023-05-20T12:30:06;9.50;;;4.30;;
76727;SDS011;65652;53.132;18.026;2023-05-20T12:32:36;8.40;;;4.50;;
76727;SDS011;65652;53.132;18.026;2023-05-20T12:35:03;8.00;;;4.50;;
76727;SDS011;65652;53.132;18.026;2023-05-20T12:39:58;7.70;;;4.20;;
76727;SDS011;65652;53.132;18.026;2023-05-20T12:42:25;8.40;;;4.50;;
76727;SDS011;65652;53.132;18.026;2023-05-20T12:44:52;8.20;;;4.40;;
76727;SDS011;65652;53.132;18.026;2023-05-20T12:47:19;10.70;;;5.10;;
76727;SDS011;65652;53.132;18.026;2023-05-20T12:49:46;8.40;;;4.40;;
76727;SDS011;65652;53.132;18.026;2023-05-20T12:52:13;7.50;;;4.90;;
76727;SDS011;65652;53.132;18.026;2023-05-20T12:54:40;7.40;;;4.30;;
76727;SDS011;65652;53.132;18.026;2023-05-20T12:57:07;8.50;;;4.60;;
76727;SDS011;65652;53.132;18.026;2023-05-20T12:59:34;6.30;;;3.40;;
76727;SDS011;65652;53.132;18.026;2023-05-20T13:02:01;8.30;;;4.20;;
76727;SDS011;65652;53.132;18.026;2023-05-20T13:04:28;8.90;;;4.30;;
76727;SDS011;65652;53.132;18.026;2023-05-20T13:06:56;10.30;;;4.30;;
76727;SDS011;65652;53.132;18.026;2023-05-20T13:09:24;9.00;;;4.50;;
76727;SDS011;65652;53.132;18.026;2023-05-20T13:11:50;8.30;;;4.40;;
76727;SDS011;65652;53.132;18.026;2023-05-20T13:14:17;6.90;;;4.00;;
76727;SDS011;65652;53.132;18.026;2023-05-20T13:16:44;6.90;;;4.00;;
76727;SDS011;65652;53.132;18.026;2023-05-20T13:19:11;7.50;;;3.90;;
76727;SDS011;65652;53.132;18.026;2023-05-20T13:21:38;7.30;;;3.60;;
76727;SDS011;65652;53.132;18.026;2023-05-20T13:24:05;8.70;;;4.30;;
76727;SDS011;65652;53.132;18.026;2023-05-20T13:26:32;9.60;;;3.90;;
76727;SDS011;65652;53.132;18.026;2023-05-20T13:28:59;7.80;;;4.10;;
76727;SDS011;65652;53.132;18.026;2023-05-20T13:31:26;9.00;;;3.70;;
76727;SDS011;65652;53.132;18.026;2023-05-20T13:33:53;8.60;;;3.90;;
76727;SDS011;65652;53.132;18.026;2023-05-20T13:36:20;6.70;;;3.80;;
76727;SDS011;65652;53.132;18.026;2023-05-20T13:38:47;8.80;;;4.10;;
76727;SDS011;65652;53.132;18.026;2023-05-20T13:41:14;7.90;;;4.20;;
76727;SDS011;65652;53.132;18.026;2023-05-20T13:43:41;9.70;;;4.10;;
76727;SDS011;65652;53.132;18.026;2023-05-20T13:46:08;6.50;;;3.80;;
76727;SDS011;65652;53.132;18.026;2023-05-20T13:48:35;9.30;;;4.00;;
76727;SDS011;65652;53.132;18.026;2023-05-20T13:51:02;8.60;;;5.10;;
76727;SDS011;65652;53.132;18.026;2023-05-20T13:53:29;9.00;;;4.00;;
76727;SDS011;65652;53.132;18.026;2023-05-20T13:55:56;7.40;;;3.70;;
76727;SDS011;65652;53.132;18.026;2023-05-20T13:58:24;10.10;;;4.20;;
76727;SDS011;65652;53.132;18.026;2023-05-20T14:00:51;6.40;;;3.60;;
76727;SDS011;65652;53.132;18.026;2023-05-20T14:03:19;8.10;;;4.90;;
76727;SDS011;65652;53.132;18.026;2023-05-20T14:05:46;7.60;;;4.20;;
76727;SDS011;65652;53.132;18.026;2023-05-20T14:08:13;7.10;;;4.40;;
76727;SDS011;65652;53.132;18.026;2023-05-20T14:10:40;6.80;;;3.90;;
76727;SDS011;65652;53.132;18.026;2023-05-20T14:13:07;7.60;;;4.30;;
76727;SDS011;65652;53.132;18.026;2023-05-20T14:15:36;8.20;;;3.90;;
76727;SDS011;65652;53.132;18.026;2023-05-20T14:18:03;8.50;;;4.30;;
76727;SDS011;65652;53.132;18.026;2023-05-20T14:20:30;8.30;;;4.30;;
76727;SDS011;65652;53.132;18.026;2023-05-20T14:22:57;7.90;;;4.40;;
76727;SDS011;65652;53.132;18.026;2023-05-20T14:49:52;7.80;;;4.60;;
76727;SDS011;65652;53.132;18.026;2023-05-20T14:52:19;7.80;;;5.00;;
76727;SDS011;65652;53.132;18.026;2023-05-20T14:54:46;8.70;;;5.00;;
76727;SDS011;65652;53.132;18.026;2023-05-20T14:57:13;9.40;;;4.60;;
76727;SDS011;65652;53.132;18.026;2023-05-20T14:59:41;9.40;;;5.50;;
76727;SDS011;65652;53.132;18.026;2023-05-20T15:02:08;9.10;;;5.20;;
76727;SDS011;65652;53.132;18.026;2023-05-20T15:04:37;10.20;;;5.00;;
76727;SDS011;65652;53.132;18.026;2023-05-20T15:07:05;11.00;;;6.10;;
76727;SDS011;65652;53.132;18.026;2023-05-20T15:09:32;8.10;;;5.00;;
76727;SDS011;65652;53.132;18.026;2023-05-20T15:12:00;9.30;;;5.30;;
76727;SDS011;65652;53.132;18.026;2023-05-20T15:14:28;8.30;;;5.10;;
76727;SDS011;65652;53.132;18.026;2023-05-20T15:16:55;9.30;;;4.80;;
76727;SDS011;65652;53.132;18.026;2023-05-20T15:19:22;10.00;;;5.80;;
76727;SDS011;65652;53.132;18.026;2023-05-20T15:21:49;9.50;;;5.40;;
76727;SDS011;65652;53.132;18.026;2023-05-20T15:24:17;8.50;;;5.20;;
76727;SDS011;65652;53.132;18.026;2023-05-20T15:26:44;8.10;;;5.20;;
76727;SDS011;65652;53.132;18.026;2023-05-20T15:29:11;8.00;;;5.20;;
76727;SDS011;65652;53.132;18.026;2023-05-20T15:31:38;8.40;;;5.10;;
76727;SDS011;65652;53.132;18.026;2023-05-20T15:34:05;8.60;;;4.80;;
76727;SDS011;65652;53.132;18.026;2023-05-20T15:36:32;8.40;;;4.80;;
76727;SDS011;65652;53.132;18.026;2023-05-20T15:39:00;8.40;;;4.90;;
76727;SDS011;65652;53.132;18.026;2023-05-20T15:43:57;7.80;;;4.30;;
76727;SDS011;65652;53.132;18.026;2023-05-20T15:46:24;8.10;;;5.00;;
76727;SDS011;65652;53.132;18.026;2023-05-20T15:48:52;10.00;;;5.30;;
76727;SDS011;65652;53.132;18.026;2023-05-20T15:51:22;8.00;;;4.80;;
76727;SDS011;65652;53.132;18.026;2023-05-20T15:53:49;7.20;;;4.30;;
76727;SDS011;65652;53.132;18.026;2023-05-20T15:56:16;9.20;;;5.20;;
76727;SDS011;65652;53.132;18.026;2023-05-20T15:58:45;9.40;;;5.50;;
76727;SDS011;65652;53.132;18.026;2023-05-20T16:01:12;8.10;;;5.10;;
76727;SDS011;65652;53.132;18.026;2023-05-20T16:06:06;8.50;;;5.00;;
76727;SDS011;65652;53.132;18.026;2023-05-20T16:08:36;8.10;;;4.90;;
76727;SDS011;65652;53.132;18.026;2023-05-20T16:11:03;9.40;;;4.80;;
76727;SDS011;65652;53.132;18.026;2023-05-20T16:13:31;7.60;;;4.70;;
76727;SDS011;65652;53.132;18.026;2023-05-20T16:15:58;12.20;;;4.70;;
76727;SDS011;65652;53.132;18.026;2023-05-20T16:20:55;7.80;;;5.40;;
76727;SDS011;65652;53.132;18.026;2023-05-20T16:23:23;6.40;;;4.50;;
76727;SDS011;65652;53.132;18.026;2023-05-20T16:25:51;8.80;;;4.50;;
76727;SDS011;65652;53.132;18.026;2023-05-20T16:28:18;6.80;;;4.80;;
76727;SDS011;65652;53.132;18.026;2023-05-20T16:30:45;8.40;;;4.80;;
76727;SDS011;65652;53.132;18.026;2023-05-20T16:33:12;7.20;;;4.60;;
76727;SDS011;65652;53.132;18.026;2023-05-20T16:35:39;10.90;;;4.40;;
76727;SDS011;65652;53.132;18.026;2023-05-20T16:38:06;8.00;;;4.70;;
76727;SDS011;65652;53.132;18.026;2023-05-20T16:40:34;9.50;;;5.00;;
76727;SDS011;65652;53.132;18.026;2023-05-20T16:43:01;8.20;;;4.70;;
76727;SDS011;65652;53.132;18.026;2023-05-20T16:45:28;7.50;;;5.10;;